sensor_id;sensor_type;location;lat;lon;timestamp;P1;durP1;ratioP1;P2;durP2;ratioP2
79212;SDS011;68639;52.380;9.822;2023-12-29T00:02:24;8.87;;;1.80;;
79212;SDS011;68639;52.380;9.822;2023-12-29T00:04:50;8.57;;;1.90;;
79212;SDS011;68639;52.380;9.822;2023-12-29T00:07:15;8.60;;;2.40;;
79212;SDS011;68639;52.380;9.822;2023-12-29T00:09:40;9.67;;;1.87;;
79212;SDS011;68639;52.380;9.822;2023-12-29T00:12:06;10.60;;;2.23;;
79212;SDS011;68639;52.380;9.822;2023-12-29T00:14:31;9.03;;;1.67;;
79212;SDS011;68639;52.380;9.822;2023-12-29T00:16:57;7.23;;;2.13;;
79212;SDS011;68639;52.380;9.822;2023-12-29T00:19:22;9.60;;;1.70;;
79212;SDS011;68639;52.380;9.822;2023-12-29T00:21:48;8.07;;;1.67;;
79212;SDS011;68639;52.380;9.822;2023-12-29T00:24:13;8.97;;;1.73;;
79212;SDS011;68639;52.380;9.822;2023-12-29T00:26:38;8.33;;;1.90;;
79212;SDS011;68639;52.380;9.822;2023-12-29T00:29:03;6.23;;;1.37;;
79212;SDS011;68639;52.380;9.822;2023-12-29T00:31:30;7.93;;;1.70;;
79212;SDS011;68639;52.380;9.822;2023-12-29T00:33:56;8.53;;;1.50;;
79212;SDS011;68639;52.380;9.822;2023-12-29T00:36:21;11.93;;;1.60;;
79212;SDS011;68639;52.380;9.822;2023-12-29T00:38:46;5.60;;;1.50;;
79212;SDS011;68639;52.380;9.822;2023-12-29T00:41:11;6.63;;;1.63;;
79212;SDS011;68639;52.380;9.822;2023-12-29T00:43:37;10.50;;;1.90;;
79212;SDS011;68639;52.380;9.822;2023-12-29T00:46:02;6.20;;;1.67;;
79212;SDS011;68639;52.380;9.822;2023-12-29T00:48:28;6.93;;;1.63;;
79212;SDS011;68639;52.380;9.822;2023-12-29T00:50:53;8.80;;;2.10;;
79212;SDS011;68639;52.380;9.822;2023-12-29T00:53:18;10.90;;;2.43;;
79212;SDS011;68639;52.380;9.822;2023-12-29T00:55:44;15.87;;;1.90;;
79212;SDS011;68639;52.380;9.822;2023-12-29T00:58:09;10.67;;;2.03;;
79212;SDS011;68639;52.380;9.822;2023-12-29T01:00:34;7.20;;;1.77;;
79212;SDS011;68639;52.380;9.822;2023-12-29T01:02:59;8.70;;;1.60;;
79212;SDS011;68639;52.380;9.822;2023-12-29T01:05:25;9.07;;;1.77;;
79212;SDS011;68639;52.380;9.822;2023-12-29T01:07:50;7.57;;;1.60;;
79212;SDS011;68639;52.380;9.822;2023-12-29T01:10:15;11.53;;;1.83;;
79212;SDS011;68639;52.380;9.822;2023-12-29T01:12:40;8.93;;;2.10;;
79212;SDS011;68639;52.380;9.822;2023-12-29T01:15:05;9.40;;;2.17;;
79212;SDS011;68639;52.380;9.822;2023-12-29T01:17:31;10.37;;;1.93;;
79212;SDS011;68639;52.380;9.822;2023-12-29T01:19:56;8.17;;;1.67;;
79212;SDS011;68639;52.380;9.822;2023-12-29T01:22:21;10.13;;;1.93;;
79212;SDS011;68639;52.380;9.822;2023-12-29T01:24:46;11.73;;;2.27;;
79212;SDS011;68639;52.380;9.822;2023-12-29T01:27:12;8.40;;;1.60;;
79212;SDS011;68639;52.380;9.822;2023-12-29T01:29:37;9.00;;;1.93;;
79212;SDS011;68639;52.380;9.822;2023-12-29T01:32:02;10.37;;;1.80;;
79212;SDS011;68639;52.380;9.822;2023-12-29T01:34:28;9.73;;;1.97;;
79212;SDS011;68639;52.380;9.822;2023-12-29T01:36:57;9.47;;;1.80;;
79212;SDS011;68639;52.380;9.822;2023-12-29T01:39:22;8.03;;;1.30;;
79212;SDS011;68639;52.380;9.822;2023-12-29T01:41:47;9.83;;;1.60;;
79212;SDS011;68639;52.380;9.822;2023-12-29T01:44:19;7.07;;;1.83;;
79212;SDS011;68639;52.380;9.822;2023-12-29T01:46:45;8.30;;;1.63;;
79212;SDS011;68639;52.380;9.822;2023-12-29T01:49:12;10.03;;;2.17;;
79212;SDS011;68639;52.380;9.822;2023-12-29T01:51:37;9.67;;;1.97;;
79212;SDS011;68639;52.380;9.822;2023-12-29T01:54:02;7.03;;;1.33;;
79212;SDS011;68639;52.380;9.822;2023-12-29T01:56:27;6.43;;;1.50;;
79212;SDS011;68639;52.380;9.822;2023-12-29T01:58:53;8.03;;;1.87;;
79212;SDS011;68639;52.380;9.822;2023-12-29T02:01:20;11.43;;;1.53;;
79212;SDS011;68639;52.380;9.822;2023-12-29T02:03:45;10.47;;;1.83;;
79212;SDS011;68639;52.380;9.822;2023-12-29T02:06:11;7.43;;;1.40;;
79212;SDS011;68639;52.380;9.822;2023-12-29T02:08:37;9.73;;;1.73;;
79212;SDS011;68639;52.380;9.822;2023-12-29T02:11:03;8.77;;;1.83;;
79212;SDS011;68639;52.380;9.822;2023-12-29T02:13:29;5.97;;;1.20;;
79212;SDS011;68639;52.380;9.822;2023-12-29T02:15:54;7.00;;;1.40;;
79212;SDS011;68639;52.380;9.822;2023-12-29T02:18:20;9.40;;;1.97;;
79212;SDS011;68639;52.380;9.822;2023-12-29T02:20:46;9.40;;;1.83;;
79212;SDS011;68639;52.380;9.822;2023-12-29T02:23:11;9.00;;;1.87;;
79212;SDS011;68639;52.380;9.822;2023-12-29T02:25:37;5.83;;;1.60;;
79212;SDS011;68639;52.380;9.822;2023-12-29T02:28:15;7.73;;;1.30;;
79212;SDS011;68639;52.380;9.822;2023-12-29T02:31:06;12.83;;;1.50;;
79212;SDS011;68639;52.380;9.822;2023-12-29T02:33:30;5.93;;;1.50;;
79212;SDS011;68639;52.380;9.822;2023-12-29T02:35:57;9.83;;;1.83;;
79212;SDS011;68639;52.380;9.822;2023-12-29T02:38:24;8.73;;;1.93;;
79212;SDS011;68639;52.380;9.822;2023-12-29T02:40:53;9.50;;;1.97;;
79212;SDS011;68639;52.380;9.822;2023-12-29T02:43:18;4.07;;;1.37;;
79212;SDS011;68639;52.380;9.822;2023-12-29T02:45:43;8.23;;;1.57;;
79212;SDS011;68639;52.380;9.822;2023-12-29T02:48:08;7.93;;;1.60;;
79212;SDS011;68639;52.380;9.822;2023-12-29T02:50:33;12.57;;;1.60;;
79212;SDS011;68639;52.380;9.822;2023-12-29T02:52:59;8.97;;;1.60;;
79212;SDS011;68639;52.380;9.822;2023-12-29T02:55:24;5.83;;;1.33;;
79212;SDS011;68639;52.380;9.822;2023-12-29T02:57:49;10.27;;;1.67;;
79212;SDS011;68639;52.380;9.822;2023-12-29T03:00:14;6.33;;;1.30;;
79212;SDS011;68639;52.380;9.822;2023-12-29T03:02:40;9.50;;;1.47;;
79212;SDS011;68639;52.380;9.822;2023-12-29T03:05:05;11.57;;;1.57;;
79212;SDS011;68639;52.380;9.822;2023-12-29T03:07:31;4.87;;;1.43;;
79212;SDS011;68639;52.380;9.822;2023-12-29T03:09:56;8.00;;;1.60;;
79212;SDS011;68639;52.380;9.822;2023-12-29T03:12:21;7.27;;;1.57;;
79212;SDS011;68639;52.380;9.822;2023-12-29T03:14:46;5.07;;;1.17;;
79212;SDS011;68639;52.380;9.822;2023-12-29T03:17:12;5.93;;;1.13;;
79212;SDS011;68639;52.380;9.822;2023-12-29T03:19:37;10.17;;;1.47;;
79212;SDS011;68639;52.380;9.822;2023-12-29T03:22:02;8.17;;;2.00;;
79212;SDS011;68639;52.380;9.822;2023-12-29T03:24:28;7.17;;;1.60;;
79212;SDS011;68639;52.380;9.822;2023-12-29T03:26:54;4.87;;;1.40;;
79212;SDS011;68639;52.380;9.822;2023-12-29T03:29:19;9.07;;;1.60;;
79212;SDS011;68639;52.380;9.822;2023-12-29T03:31:44;8.60;;;1.53;;
79212;SDS011;68639;52.380;9.822;2023-12-29T03:34:10;6.17;;;1.47;;
79212;SDS011;68639;52.380;9.822;2023-12-29T03:36:35;6.83;;;1.20;;
79212;SDS011;68639;52.380;9.822;2023-12-29T03:39:00;8.23;;;1.23;;
79212;SDS011;68639;52.380;9.822;2023-12-29T03:41:25;6.33;;;1.43;;
79212;SDS011;68639;52.380;9.822;2023-12-29T03:43:50;10.07;;;1.50;;
79212;SDS011;68639;52.380;9.822;2023-12-29T03:46:19;10.57;;;1.40;;
79212;SDS011;68639;52.380;9.822;2023-12-29T03:48:45;5.43;;;1.33;;
79212;SDS011;68639;52.380;9.822;2023-12-29T03:51:10;7.57;;;1.17;;
79212;SDS011;68639;52.380;9.822;2023-12-29T03:53:35;6.60;;;1.40;;
79212;SDS011;68639;52.380;9.822;2023-12-29T03:56:04;4.03;;;1.40;;
79212;SDS011;68639;52.380;9.822;2023-12-29T03:58:30;6.63;;;1.07;;
79212;SDS011;68639;52.380;9.822;2023-12-29T04:00:55;2.80;;;0.60;;
79212;SDS011;68639;52.380;9.822;2023-12-29T04:03:20;4.53;;;1.13;;
79212;SDS011;68639;52.380;9.822;2023-12-29T04:05:45;4.77;;;1.00;;
79212;SDS011;68639;52.380;9.822;2023-12-29T04:08:11;6.87;;;1.23;;
79212;SDS011;68639;52.380;9.822;2023-12-29T04:10:37;2.67;;;0.67;;
79212;SDS011;68639;52.380;9.822;2023-12-29T04:13:02;6.20;;;1.03;;
79212;SDS011;68639;52.380;9.822;2023-12-29T04:15:27;4.53;;;0.80;;
79212;SDS011;68639;52.380;9.822;2023-12-29T04:17:52;4.40;;;0.90;;
79212;SDS011;68639;52.380;9.822;2023-12-29T04:20:18;4.03;;;1.00;;
79212;SDS011;68639;52.380;9.822;2023-12-29T04:22:43;3.40;;;0.90;;
79212;SDS011;68639;52.380;9.822;2023-12-29T04:25:08;3.73;;;1.23;;
79212;SDS011;68639;52.380;9.822;2023-12-29T04:27:34;8.13;;;1.17;;
79212;SDS011;68639;52.380;9.822;2023-12-29T04:29:59;4.50;;;0.83;;
79212;SDS011;68639;52.380;9.822;2023-12-29T04:32:24;3.67;;;1.03;;
79212;SDS011;68639;52.380;9.822;2023-12-29T04:34:49;6.47;;;1.17;;
79212;SDS011;68639;52.380;9.822;2023-12-29T04:37:14;3.47;;;0.93;;
79212;SDS011;68639;52.380;9.822;2023-12-29T04:39:39;7.13;;;1.00;;
79212;SDS011;68639;52.380;9.822;2023-12-29T04:42:05;4.07;;;1.93;;
79212;SDS011;68639;52.380;9.822;2023-12-29T04:44:30;6.33;;;1.07;;
79212;SDS011;68639;52.380;9.822;2023-12-29T04:46:55;3.93;;;1.10;;
79212;SDS011;68639;52.380;9.822;2023-12-29T04:49:20;6.00;;;1.00;;
79212;SDS011;68639;52.380;9.822;2023-12-29T04:51:45;6.60;;;1.27;;
79212;SDS011;68639;52.380;9.822;2023-12-29T04:54:13;5.40;;;1.50;;
79212;SDS011;68639;52.380;9.822;2023-12-29T04:56:38;3.87;;;1.00;;
79212;SDS011;68639;52.380;9.822;2023-12-29T04:59:03;6.20;;;1.00;;
79212;SDS011;68639;52.380;9.822;2023-12-29T05:01:28;5.00;;;1.40;;
79212;SDS011;68639;52.380;9.822;2023-12-29T05:03:54;6.47;;;1.23;;
79212;SDS011;68639;52.380;9.822;2023-12-29T05:06:19;4.20;;;1.17;;
79212;SDS011;68639;52.380;9.822;2023-12-29T05:08:44;3.13;;;0.73;;
79212;SDS011;68639;52.380;9.822;2023-12-29T05:11:09;6.60;;;1.20;;
79212;SDS011;68639;52.380;9.822;2023-12-29T05:13:34;5.23;;;1.10;;
79212;SDS011;68639;52.380;9.822;2023-12-29T05:16:00;4.43;;;1.13;;
79212;SDS011;68639;52.380;9.822;2023-12-29T05:18:25;4.13;;;1.43;;
79212;SDS011;68639;52.380;9.822;2023-12-29T05:20:52;3.00;;;1.03;;
79212;SDS011;68639;52.380;9.822;2023-12-29T05:23:18;5.13;;;1.30;;
79212;SDS011;68639;52.380;9.822;2023-12-29T05:25:43;9.87;;;1.70;;
79212;SDS011;68639;52.380;9.822;2023-12-29T05:28:08;4.67;;;0.93;;
79212;SDS011;68639;52.380;9.822;2023-12-29T05:30:33;6.53;;;1.23;;
79212;SDS011;68639;52.380;9.822;2023-12-29T05:32:58;8.57;;;2.77;;
79212;SDS011;68639;52.380;9.822;2023-12-29T05:35:23;7.43;;;1.47;;
79212;SDS011;68639;52.380;9.822;2023-12-29T05:37:49;4.70;;;1.30;;
79212;SDS011;68639;52.380;9.822;2023-12-29T05:40:15;7.13;;;1.63;;
79212;SDS011;68639;52.380;9.822;2023-12-29T05:42:40;6.60;;;1.50;;
79212;SDS011;68639;52.380;9.822;2023-12-29T05:45:05;6.03;;;1.60;;
79212;SDS011;68639;52.380;9.822;2023-12-29T05:47:30;4.67;;;1.23;;
79212;SDS011;68639;52.380;9.822;2023-12-29T05:49:56;7.23;;;1.53;;
79212;SDS011;68639;52.380;9.822;2023-12-29T05:52:21;6.23;;;2.10;;
79212;SDS011;68639;52.380;9.822;2023-12-29T05:54:46;7.27;;;2.10;;
79212;SDS011;68639;52.380;9.822;2023-12-29T05:57:11;6.97;;;1.87;;
79212;SDS011;68639;52.380;9.822;2023-12-29T05:59:37;9.37;;;1.73;;
79212;SDS011;68639;52.380;9.822;2023-12-29T06:02:03;7.80;;;2.60;;
79212;SDS011;68639;52.380;9.822;2023-12-29T06:04:28;8.63;;;2.60;;
79212;SDS011;68639;52.380;9.822;2023-12-29T06:06:53;9.03;;;1.77;;
79212;SDS011;68639;52.380;9.822;2023-12-29T06:09:18;9.53;;;1.87;;
79212;SDS011;68639;52.380;9.822;2023-12-29T06:11:43;11.47;;;2.20;;
79212;SDS011;68639;52.380;9.822;2023-12-29T06:14:09;14.50;;;5.20;;
79212;SDS011;68639;52.380;9.822;2023-12-29T06:16:35;7.83;;;2.07;;
79212;SDS011;68639;52.380;9.822;2023-12-29T06:19:00;8.60;;;2.37;;
79212;SDS011;68639;52.380;9.822;2023-12-29T06:21:25;8.67;;;2.40;;
79212;SDS011;68639;52.380;9.822;2023-12-29T06:23:50;9.40;;;2.20;;
79212;SDS011;68639;52.380;9.822;2023-12-29T06:28:41;8.37;;;2.43;;
79212;SDS011;68639;52.380;9.822;2023-12-29T06:31:07;13.07;;;2.57;;
79212;SDS011;68639;52.380;9.822;2023-12-29T06:33:32;8.17;;;3.00;;
79212;SDS011;68639;52.380;9.822;2023-12-29T06:35:58;11.30;;;2.80;;
79212;SDS011;68639;52.380;9.822;2023-12-29T06:38:23;15.23;;;3.80;;
79212;SDS011;68639;52.380;9.822;2023-12-29T06:40:48;8.63;;;2.73;;
79212;SDS011;68639;52.380;9.822;2023-12-29T06:43:13;12.27;;;2.70;;
79212;SDS011;68639;52.380;9.822;2023-12-29T06:45:39;9.90;;;2.83;;
79212;SDS011;68639;52.380;9.822;2023-12-29T06:48:04;11.37;;;2.80;;
79212;SDS011;68639;52.380;9.822;2023-12-29T06:50:29;15.07;;;4.00;;
79212;SDS011;68639;52.380;9.822;2023-12-29T06:52:55;10.73;;;2.70;;
79212;SDS011;68639;52.380;9.822;2023-12-29T06:55:20;13.77;;;2.63;;
79212;SDS011;68639;52.380;9.822;2023-12-29T06:57:45;11.23;;;2.53;;
79212;SDS011;68639;52.380;9.822;2023-12-29T07:00:10;13.17;;;2.80;;
79212;SDS011;68639;52.380;9.822;2023-12-29T07:02:39;12.47;;;2.80;;
79212;SDS011;68639;52.380;9.822;2023-12-29T07:05:05;10.13;;;2.50;;
79212;SDS011;68639;52.380;9.822;2023-12-29T07:07:30;10.43;;;2.73;;
79212;SDS011;68639;52.380;9.822;2023-12-29T07:09:55;11.93;;;3.17;;
79212;SDS011;68639;52.380;9.822;2023-12-29T07:12:21;10.33;;;2.67;;
79212;SDS011;68639;52.380;9.822;2023-12-29T07:14:46;17.17;;;3.07;;
79212;SDS011;68639;52.380;9.822;2023-12-29T07:17:11;10.23;;;2.43;;
79212;SDS011;68639;52.380;9.822;2023-12-29T07:19:36;15.57;;;6.33;;
79212;SDS011;68639;52.380;9.822;2023-12-29T07:22:02;9.90;;;2.90;;
79212;SDS011;68639;52.380;9.822;2023-12-29T07:24:28;14.70;;;2.67;;
79212;SDS011;68639;52.380;9.822;2023-12-29T07:26:53;14.43;;;1.90;;
79212;SDS011;68639;52.380;9.822;2023-12-29T07:29:18;12.67;;;2.57;;
79212;SDS011;68639;52.380;9.822;2023-12-29T07:31:44;14.37;;;2.50;;
79212;SDS011;68639;52.380;9.822;2023-12-29T07:34:09;12.03;;;2.53;;
79212;SDS011;68639;52.380;9.822;2023-12-29T07:36:38;10.60;;;2.33;;
79212;SDS011;68639;52.380;9.822;2023-12-29T07:39:03;13.97;;;2.63;;
79212;SDS011;68639;52.380;9.822;2023-12-29T07:41:29;10.17;;;2.17;;
79212;SDS011;68639;52.380;9.822;2023-12-29T07:43:54;12.70;;;2.40;;
79212;SDS011;68639;52.380;9.822;2023-12-29T07:46:26;10.30;;;2.30;;
79212;SDS011;68639;52.380;9.822;2023-12-29T07:48:54;15.77;;;2.80;;
79212;SDS011;68639;52.380;9.822;2023-12-29T07:51:19;12.27;;;2.40;;
79212;SDS011;68639;52.380;9.822;2023-12-29T07:53:44;10.57;;;2.30;;
79212;SDS011;68639;52.380;9.822;2023-12-29T07:56:10;12.17;;;2.80;;
79212;SDS011;68639;52.380;9.822;2023-12-29T07:58:35;13.97;;;3.13;;
79212;SDS011;68639;52.380;9.822;2023-12-29T08:01:00;15.77;;;3.23;;
79212;SDS011;68639;52.380;9.822;2023-12-29T08:03:25;10.57;;;2.50;;
79212;SDS011;68639;52.380;9.822;2023-12-29T08:05:51;13.97;;;3.00;;
79212;SDS011;68639;52.380;9.822;2023-12-29T08:08:17;16.30;;;5.37;;
79212;SDS011;68639;52.380;9.822;2023-12-29T08:10:42;13.23;;;2.80;;
79212;SDS011;68639;52.380;9.822;2023-12-29T08:13:07;10.53;;;2.30;;
79212;SDS011;68639;52.380;9.822;2023-12-29T08:15:34;15.03;;;2.80;;
79212;SDS011;68639;52.380;9.822;2023-12-29T08:17:59;11.87;;;2.60;;
79212;SDS011;68639;52.380;9.822;2023-12-29T08:20:24;13.87;;;2.40;;
79212;SDS011;68639;52.380;9.822;2023-12-29T08:22:50;8.50;;;2.10;;
79212;SDS011;68639;52.380;9.822;2023-12-29T08:25:15;11.90;;;2.30;;
79212;SDS011;68639;52.380;9.822;2023-12-29T08:27:40;9.53;;;2.37;;
79212;SDS011;68639;52.380;9.822;2023-12-29T08:30:06;12.90;;;2.50;;
79212;SDS011;68639;52.380;9.822;2023-12-29T08:32:31;11.67;;;2.30;;
79212;SDS011;68639;52.380;9.822;2023-12-29T08:34:58;9.67;;;2.57;;
79212;SDS011;68639;52.380;9.822;2023-12-29T08:37:23;15.60;;;2.67;;
79212;SDS011;68639;52.380;9.822;2023-12-29T08:39:48;15.20;;;3.03;;
79212;SDS011;68639;52.380;9.822;2023-12-29T08:42:14;11.77;;;2.17;;
79212;SDS011;68639;52.380;9.822;2023-12-29T08:44:39;14.17;;;2.80;;
79212;SDS011;68639;52.380;9.822;2023-12-29T08:47:04;11.40;;;2.63;;
79212;SDS011;68639;52.380;9.822;2023-12-29T08:49:33;11.63;;;2.47;;
79212;SDS011;68639;52.380;9.822;2023-12-29T08:51:58;16.23;;;3.10;;
79212;SDS011;68639;52.380;9.822;2023-12-29T08:54:23;16.17;;;3.57;;
79212;SDS011;68639;52.380;9.822;2023-12-29T08:56:48;15.23;;;2.73;;
79212;SDS011;68639;52.380;9.822;2023-12-29T08:59:14;15.70;;;2.80;;
79212;SDS011;68639;52.380;9.822;2023-12-29T09:01:39;14.10;;;2.57;;
79212;SDS011;68639;52.380;9.822;2023-12-29T09:04:04;10.30;;;1.80;;
79212;SDS011;68639;52.380;9.822;2023-12-29T09:06:30;11.73;;;2.40;;
79212;SDS011;68639;52.380;9.822;2023-12-29T09:08:55;14.77;;;2.73;;
79212;SDS011;68639;52.380;9.822;2023-12-29T09:11:20;10.03;;;2.30;;
79212;SDS011;68639;52.380;9.822;2023-12-29T09:13:45;8.60;;;2.03;;
79212;SDS011;68639;52.380;9.822;2023-12-29T09:16:10;13.00;;;2.60;;
79212;SDS011;68639;52.380;9.822;2023-12-29T09:18:36;15.10;;;2.47;;
79212;SDS011;68639;52.380;9.822;2023-12-29T09:21:01;19.97;;;2.47;;
79212;SDS011;68639;52.380;9.822;2023-12-29T09:23:26;11.97;;;2.03;;
79212;SDS011;68639;52.380;9.822;2023-12-29T09:25:51;18.27;;;2.30;;
79212;SDS011;68639;52.380;9.822;2023-12-29T09:28:16;12.97;;;2.20;;
79212;SDS011;68639;52.380;9.822;2023-12-29T09:30:42;11.27;;;2.23;;
79212;SDS011;68639;52.380;9.822;2023-12-29T09:33:07;14.87;;;2.60;;
79212;SDS011;68639;52.380;9.822;2023-12-29T09:35:32;8.50;;;1.90;;
79212;SDS011;68639;52.380;9.822;2023-12-29T09:37:57;17.63;;;2.80;;
79212;SDS011;68639;52.380;9.822;2023-12-29T09:40:24;13.43;;;2.50;;
79212;SDS011;68639;52.380;9.822;2023-12-29T09:42:49;11.77;;;2.20;;
79212;SDS011;68639;52.380;9.822;2023-12-29T09:45:15;9.70;;;2.23;;
79212;SDS011;68639;52.380;9.822;2023-12-29T09:47:43;13.00;;;2.50;;
79212;SDS011;68639;52.380;9.822;2023-12-29T09:50:11;10.27;;;2.30;;
79212;SDS011;68639;52.380;9.822;2023-12-29T09:52:40;12.60;;;2.37;;
79212;SDS011;68639;52.380;9.822;2023-12-29T09:55:09;7.30;;;1.23;;
79212;SDS011;68639;52.380;9.822;2023-12-29T09:57:35;11.20;;;1.70;;
79212;SDS011;68639;52.380;9.822;2023-12-29T10:00:01;9.37;;;1.83;;
79212;SDS011;68639;52.380;9.822;2023-12-29T10:02:26;11.97;;;1.87;;
79212;SDS011;68639;52.380;9.822;2023-12-29T10:04:52;10.93;;;2.00;;
79212;SDS011;68639;52.380;9.822;2023-12-29T10:07:22;9.30;;;1.70;;
79212;SDS011;68639;52.380;9.822;2023-12-29T10:09:50;7.20;;;1.37;;
79212;SDS011;68639;52.380;9.822;2023-12-29T10:12:16;4.47;;;1.23;;
79212;SDS011;68639;52.380;9.822;2023-12-29T10:14:48;5.87;;;1.23;;
79212;SDS011;68639;52.380;9.822;2023-12-29T10:17:19;6.60;;;1.63;;
79212;SDS011;68639;52.380;9.822;2023-12-29T10:19:53;4.00;;;1.03;;
79212;SDS011;68639;52.380;9.822;2023-12-29T10:22:26;7.07;;;1.63;;
79212;SDS011;68639;52.380;9.822;2023-12-29T10:24:51;9.53;;;1.43;;
79212;SDS011;68639;52.380;9.822;2023-12-29T10:27:17;5.67;;;1.20;;
79212;SDS011;68639;52.380;9.822;2023-12-29T10:29:42;6.50;;;1.13;;
79212;SDS011;68639;52.380;9.822;2023-12-29T10:32:08;5.83;;;1.50;;
79212;SDS011;68639;52.380;9.822;2023-12-29T10:34:34;7.93;;;2.37;;
79212;SDS011;68639;52.380;9.822;2023-12-29T10:36:59;8.27;;;1.60;;
79212;SDS011;68639;52.380;9.822;2023-12-29T10:39:28;10.70;;;1.83;;
79212;SDS011;68639;52.380;9.822;2023-12-29T10:42:03;10.23;;;1.90;;
79212;SDS011;68639;52.380;9.822;2023-12-29T10:44:33;8.83;;;1.70;;
79212;SDS011;68639;52.380;9.822;2023-12-29T10:46:58;7.97;;;2.13;;
79212;SDS011;68639;52.380;9.822;2023-12-29T10:49:24;8.03;;;2.07;;
79212;SDS011;68639;52.380;9.822;2023-12-29T10:51:49;7.90;;;1.87;;
79212;SDS011;68639;52.380;9.822;2023-12-29T10:54:20;8.87;;;1.97;;
79212;SDS011;68639;52.380;9.822;2023-12-29T10:57:02;8.53;;;2.07;;
79212;SDS011;68639;52.380;9.822;2023-12-29T10:59:30;7.20;;;1.83;;
79212;SDS011;68639;52.380;9.822;2023-12-29T11:01:55;7.30;;;1.70;;
79212;SDS011;68639;52.380;9.822;2023-12-29T11:04:24;6.30;;;1.67;;
79212;SDS011;68639;52.380;9.822;2023-12-29T11:06:49;6.70;;;1.50;;
79212;SDS011;68639;52.380;9.822;2023-12-29T11:09:29;9.37;;;1.83;;
79212;SDS011;68639;52.380;9.822;2023-12-29T11:11:59;6.17;;;1.37;;
79212;SDS011;68639;52.380;9.822;2023-12-29T11:14:24;6.90;;;1.70;;
79212;SDS011;68639;52.380;9.822;2023-12-29T11:16:50;6.60;;;1.63;;
79212;SDS011;68639;52.380;9.822;2023-12-29T11:19:15;5.27;;;1.00;;
79212;SDS011;68639;52.380;9.822;2023-12-29T11:21:42;6.50;;;1.13;;
79212;SDS011;68639;52.380;9.822;2023-12-29T11:24:07;6.73;;;1.80;;
79212;SDS011;68639;52.380;9.822;2023-12-29T11:26:32;4.87;;;1.10;;
79212;SDS011;68639;52.380;9.822;2023-12-29T11:28:58;6.20;;;1.17;;
79212;SDS011;68639;52.380;9.822;2023-12-29T11:31:24;4.67;;;1.67;;
79212;SDS011;68639;52.380;9.822;2023-12-29T11:33:50;3.90;;;1.30;;
79212;SDS011;68639;52.380;9.822;2023-12-29T11:36:23;2.93;;;1.00;;
79212;SDS011;68639;52.380;9.822;2023-12-29T11:39:02;4.47;;;1.37;;
79212;SDS011;68639;52.380;9.822;2023-12-29T11:41:38;2.43;;;1.03;;
79212;SDS011;68639;52.380;9.822;2023-12-29T11:44:04;4.77;;;0.90;;
79212;SDS011;68639;52.380;9.822;2023-12-29T11:46:37;3.20;;;0.90;;
79212;SDS011;68639;52.380;9.822;2023-12-29T11:49:02;4.87;;;1.37;;
79212;SDS011;68639;52.380;9.822;2023-12-29T11:51:43;18.50;;;16.50;;
79212;SDS011;68639;52.380;9.822;2023-12-29T11:54:09;3.13;;;0.90;;
79212;SDS011;68639;52.380;9.822;2023-12-29T11:56:35;7.60;;;5.83;;
79212;SDS011;68639;52.380;9.822;2023-12-29T11:59:34;3.93;;;0.93;;
79212;SDS011;68639;52.380;9.822;2023-12-29T12:01:55;6.70;;;1.37;;
79212;SDS011;68639;52.380;9.822;2023-12-29T12:04:40;5.43;;;1.83;;
79212;SDS011;68639;52.380;9.822;2023-12-29T12:12:40;2.73;;;0.90;;
79212;SDS011;68639;52.380;9.822;2023-12-29T12:15:51;2.60;;;0.93;;
79212;SDS011;68639;52.380;9.822;2023-12-29T12:17:51;3.53;;;1.10;;
79212;SDS011;68639;52.380;9.822;2023-12-29T12:20:16;4.47;;;1.23;;
79212;SDS011;68639;52.380;9.822;2023-12-29T12:22:42;5.17;;;1.23;;
79212;SDS011;68639;52.380;9.822;2023-12-29T12:25:08;2.13;;;1.07;;
79212;SDS011;68639;52.380;9.822;2023-12-29T12:27:37;4.53;;;1.33;;
79212;SDS011;68639;52.380;9.822;2023-12-29T12:30:02;4.60;;;1.43;;
79212;SDS011;68639;52.380;9.822;2023-12-29T12:32:28;4.50;;;1.03;;
79212;SDS011;68639;52.380;9.822;2023-12-29T12:34:53;3.33;;;0.93;;
79212;SDS011;68639;52.380;9.822;2023-12-29T12:37:22;4.93;;;0.80;;
79212;SDS011;68639;52.380;9.822;2023-12-29T12:39:47;3.43;;;1.13;;
79212;SDS011;68639;52.380;9.822;2023-12-29T12:42:13;4.60;;;1.27;;
79212;SDS011;68639;52.380;9.822;2023-12-29T12:44:40;2.77;;;0.97;;
79212;SDS011;68639;52.380;9.822;2023-12-29T12:47:06;2.50;;;1.10;;
79212;SDS011;68639;52.380;9.822;2023-12-29T12:49:32;4.10;;;1.17;;
79212;SDS011;68639;52.380;9.822;2023-12-29T12:51:58;2.50;;;0.90;;
79212;SDS011;68639;52.380;9.822;2023-12-29T12:54:23;5.73;;;1.13;;
79212;SDS011;68639;52.380;9.822;2023-12-29T12:56:48;3.33;;;0.70;;
79212;SDS011;68639;52.380;9.822;2023-12-29T12:59:14;1.93;;;0.83;;
79212;SDS011;68639;52.380;9.822;2023-12-29T13:01:39;2.77;;;0.90;;
79212;SDS011;68639;52.380;9.822;2023-12-29T13:04:05;3.23;;;0.83;;
79212;SDS011;68639;52.380;9.822;2023-12-29T13:06:31;3.30;;;0.90;;
79212;SDS011;68639;52.380;9.822;2023-12-29T13:08:57;2.20;;;0.80;;
79212;SDS011;68639;52.380;9.822;2023-12-29T13:11:23;2.93;;;0.97;;
79212;SDS011;68639;52.380;9.822;2023-12-29T13:13:50;1.30;;;0.90;;
79212;SDS011;68639;52.380;9.822;2023-12-29T13:16:16;2.57;;;1.00;;
79212;SDS011;68639;52.380;9.822;2023-12-29T13:18:41;1.47;;;0.80;;
79212;SDS011;68639;52.380;9.822;2023-12-29T13:21:06;1.97;;;0.93;;
79212;SDS011;68639;52.380;9.822;2023-12-29T13:23:32;3.20;;;1.00;;
79212;SDS011;68639;52.380;9.822;2023-12-29T13:25:59;4.07;;;0.67;;
79212;SDS011;68639;52.380;9.822;2023-12-29T13:28:24;1.70;;;0.80;;
79212;SDS011;68639;52.380;9.822;2023-12-29T13:30:50;12.87;;;11.57;;
79212;SDS011;68639;52.380;9.822;2023-12-29T13:33:18;1.60;;;0.77;;
79212;SDS011;68639;52.380;9.822;2023-12-29T13:35:50;2.77;;;0.80;;
79212;SDS011;68639;52.380;9.822;2023-12-29T13:38:18;2.63;;;0.90;;
79212;SDS011;68639;52.380;9.822;2023-12-29T13:40:46;2.47;;;0.90;;
79212;SDS011;68639;52.380;9.822;2023-12-29T13:43:17;2.10;;;0.90;;
79212;SDS011;68639;52.380;9.822;2023-12-29T13:45:43;1.60;;;0.80;;
79212;SDS011;68639;52.380;9.822;2023-12-29T13:48:09;1.87;;;0.90;;
79212;SDS011;68639;52.380;9.822;2023-12-29T13:50:34;1.10;;;0.80;;
79212;SDS011;68639;52.380;9.822;2023-12-29T13:53:00;2.83;;;1.20;;
79212;SDS011;68639;52.380;9.822;2023-12-29T13:55:25;3.63;;;1.07;;
79212;SDS011;68639;52.380;9.822;2023-12-29T13:57:51;3.47;;;0.80;;
79212;SDS011;68639;52.380;9.822;2023-12-29T14:00:17;2.83;;;0.80;;
79212;SDS011;68639;52.380;9.822;2023-12-29T14:02:47;3.53;;;1.00;;
79212;SDS011;68639;52.380;9.822;2023-12-29T14:05:18;1.97;;;0.70;;
79212;SDS011;68639;52.380;9.822;2023-12-29T14:07:47;2.47;;;0.80;;
79212;SDS011;68639;52.380;9.822;2023-12-29T14:10:17;2.57;;;1.20;;
79212;SDS011;68639;52.380;9.822;2023-12-29T14:12:43;3.57;;;1.07;;
79212;SDS011;68639;52.380;9.822;2023-12-29T14:15:08;3.13;;;1.33;;
79212;SDS011;68639;52.380;9.822;2023-12-29T14:17:33;3.07;;;0.93;;
79212;SDS011;68639;52.380;9.822;2023-12-29T14:19:59;2.53;;;1.00;;
79212;SDS011;68639;52.380;9.822;2023-12-29T14:22:29;2.97;;;1.17;;
79212;SDS011;68639;52.380;9.822;2023-12-29T14:25:27;3.97;;;1.07;;
79212;SDS011;68639;52.380;9.822;2023-12-29T14:27:51;4.63;;;1.43;;
79212;SDS011;68639;52.380;9.822;2023-12-29T14:30:17;5.90;;;1.30;;
79212;SDS011;68639;52.380;9.822;2023-12-29T14:32:43;2.67;;;1.10;;
79212;SDS011;68639;52.380;9.822;2023-12-29T14:35:08;4.07;;;1.33;;
79212;SDS011;68639;52.380;9.822;2023-12-29T14:37:35;4.23;;;1.43;;
79212;SDS011;68639;52.380;9.822;2023-12-29T14:40:00;3.77;;;1.20;;
79212;SDS011;68639;52.380;9.822;2023-12-29T14:42:26;3.77;;;1.23;;
79212;SDS011;68639;52.380;9.822;2023-12-29T14:44:51;5.47;;;1.57;;
79212;SDS011;68639;52.380;9.822;2023-12-29T14:47:16;4.33;;;1.07;;